Time;durP1;ratioP1;P1;durP2;ratioP2;P2;SDS_P1;SDS_P2;PMS_P1;PMS_P2;Temp;Humidity;BMP_temperature;BMP_pressure;BME280_temperature;BME280_humidity;BME280_pressure;Samples;Min_cycle;Max_cycle;Signal;HPM_P1;HPM_P2
2022/05/17 00:00:37;;;;;;;8.18;2.30;;;;;;;13.05;95.43;102055.47;5071917;28;20093;-79
2022/05/17 00:03:03;;;;;;;9.20;1.95;;;;;;;13.15;94.80;102060.06;5071995;28;20462;-79
2022/05/17 00:05:28;;;;;;;7.57;2.15;;;;;;;13.22;94.52;102054.06;5071879;28;20031;-79
2022/05/17 00:07:54;;;;;;;7.78;1.98;;;;;;;13.30;93.56;102069.50;5072399;28;20034;-79
2022/05/17 00:10:21;;;;;;;4.95;1.88;;;;;;;13.28;93.06;102060.75;5071798;28;20028;-79
2022/05/17 00:12:48;;;;;;;4.45;2.28;;;;;;;13.21;92.71;102063.09;5071824;28;20082;-79
2022/05/17 00:15:15;;;;;;;9.70;2.20;;;;;;;13.19;93.20;102061.50;5071590;28;20455;-78
2022/05/17 00:17:41;;;;;;;9.85;2.28;;;;;;;13.21;93.40;102064.88;5053500;28;20547;-78
2022/05/17 00:20:07;;;;;;;10.93;2.30;;;;;;;13.23;92.94;102074.50;5071644;28;20059;-78
2022/05/17 00:22:33;;;;;;;9.25;1.90;;;;;;;13.27;93.04;102069.75;5071551;28;20040;-78
2022/05/17 00:24:58;;;;;;;4.30;1.88;;;;;;;13.28;92.78;102070.59;5071082;28;20048;-79
2022/05/17 00:27:24;;;;;;;11.20;2.22;;;;;;;13.25;92.66;102062.84;5071166;28;20037;-78
2022/05/17 00:29:50;;;;;;;6.38;1.70;;;;;;;13.26;92.69;102072.56;5070878;28;20457;-78
2022/05/17 00:32:15;;;;;;;9.77;2.05;;;;;;;13.27;92.63;102066.22;5071363;28;20449;-77
2022/05/17 00:34:41;;;;;;;4.28;2.33;;;;;;;13.30;92.34;102063.28;5070956;28;20043;-79
2022/05/17 00:37:06;;;;;;;3.30;1.60;;;;;;;13.30;92.47;102061.47;5071305;28;20060;-79
2022/05/17 00:39:32;;;;;;;5.90;2.05;;;;;;;13.31;92.31;102059.66;5071406;28;20039;-79
2022/05/17 00:41:58;;;;;;;4.53;1.80;;;;;;;13.34;92.34;102067.44;5071136;28;20047;-79
2022/05/17 00:47:15;;;;;;;5.82;1.73;;;;;;;13.31;92.07;102071.19;5071312;28;20043;-78
2022/05/17 00:49:46;;;;;;;6.00;2.10;;;;;;;13.31;92.04;102068.50;5071566;28;20083;-79
2022/05/17 00:52:13;;;;;;;;;;;;;;;13.36;92.00;102076.16;5071180;28;20059;-79
2022/05/17 00:54:42;;;;;;;5.97;1.80;;;;;;;13.33;91.57;102066.56;5070884;28;19960;-79
2022/05/17 00:57:35;;;;;;;6.57;2.00;;;;;;;13.31;91.40;102081.88;5070866;28;20033;-78
2022/05/17 01:00:08;;;;;;;8.73;2.10;;;;;;;13.30;91.91;102074.84;5070773;28;20032;-79
2022/05/17 01:02:33;;;;;;;5.80;1.88;;;;;;;13.27;91.67;102075.09;5071091;28;20055;-79
2022/05/17 01:05:01;;;;;;;6.85;2.08;;;;;;;13.24;91.65;102083.34;5070482;28;20437;-79
2022/05/17 01:07:36;;;;;;;7.15;1.73;;;;;;;13.19;91.94;102072.19;5070215;28;20032;-79
2022/05/17 01:10:01;;;;;;;8.10;1.90;;;;;;;13.15;92.28;102086.78;5070355;28;20055;-79
2022/05/17 01:12:26;;;;;;;3.88;1.88;;;;;;;13.09;92.42;102079.28;5070853;28;20367;-79
2022/05/17 01:14:58;;;;;;;5.57;1.92;;;;;;;13.03;92.36;102081.47;5070595;28;20429;-79
2022/05/17 01:17:32;;;;;;;5.00;2.03;;;;;;;12.99;93.06;102082.69;5052174;28;20074;-79
2022/05/17 01:19:59;;;;;;;7.10;2.20;;;;;;;12.97;92.85;102073.09;5070593;28;20111;-79
2022/05/17 01:22:25;;;;;;;6.25;1.85;;;;;;;12.92;92.90;102075.31;5070590;28;20397;-79
2022/05/17 01:24:51;;;;;;;6.95;1.88;;;;;;;12.85;92.76;102072.28;5070380;28;20077;-79
2022/05/17 01:27:33;;;;;;;3.08;1.50;;;;;;;12.76;93.37;102075.69;5069275;28;20036;-79
2022/05/17 01:29:59;;;;;;;7.40;2.30;;;;;;;12.67;93.46;102088.81;5070885;28;20083;-79
2022/05/17 01:32:25;;;;;;;5.25;2.05;;;;;;;12.58;93.56;102078.84;5053207;28;20032;-78
2022/05/17 01:34:50;;;;;;;4.43;1.90;;;;;;;12.50;93.74;102087.47;5070544;28;20444;-79
2022/05/17 01:37:18;;;;;;;3.15;1.77;;;;;;;12.44;93.83;102087.13;5070866;28;20020;-79
2022/05/17 01:39:44;;;;;;;5.85;1.90;;;;;;;12.38;94.87;102088.44;5070361;28;20035;-78
2022/05/17 01:42:11;;;;;;;6.78;2.30;;;;;;;12.32;94.79;102086.25;5070388;28;20142;-79
2022/05/17 01:44:38;;;;;;;5.90;1.60;;;;;;;12.27;94.34;102086.63;5052338;28;20386;-79
2022/05/17 01:47:04;;;;;;;5.93;2.28;;;;;;;12.22;95.14;102079.94;5070622;28;20083;-78
2022/05/17 01:49:32;;;;;;;6.07;2.03;;;;;;;12.16;95.20;102081.25;5070464;28;20056;-78
2022/05/17 01:51:58;;;;;;;6.22;2.10;;;;;;;12.13;96.18;102081.50;5070563;28;20033;-78
2022/05/17 01:54:23;;;;;;;4.57;2.20;;;;;;;12.09;96.50;102080.03;5052229;28;20098;-78
2022/05/17 01:56:48;;;;;;;5.38;2.17;;;;;;;12.04;96.38;102079.56;5070472;28;20078;-78
2022/05/17 01:59:14;;;;;;;5.35;2.58;;;;;;;12.00;96.96;102076.25;5070421;28;20051;-78
2022/05/17 02:01:39;;;;;;;10.00;2.30;;;;;;;11.95;96.89;102081.09;5069969;28;20111;-78
2022/05/17 02:04:05;;;;;;;6.45;2.10;;;;;;;11.95;97.42;102079.28;5070180;28;20450;-78
2022/05/17 02:06:30;;;;;;;6.80;2.50;;;;;;;11.95;98.54;102083.78;5069703;28;20024;-78
2022/05/17 02:08:56;;;;;;;6.53;2.78;;;;;;;11.93;98.67;102083.06;5070115;28;20024;-78
2022/05/17 02:11:21;;;;;;;7.57;2.25;;;;;;;11.95;98.56;102092.63;5070616;28;20047;-78
2022/05/17 02:13:47;;;;;;;4.78;2.22;;;;;;;11.99;98.60;102088.75;5070271;28;20090;-78
2022/05/17 02:16:13;;;;;;;8.95;2.63;;;;;;;12.07;99.32;102089.97;5070340;28;20124;-78
2022/05/17 02:18:38;;;;;;;8.98;2.38;;;;;;;12.15;99.67;102087.56;5071578;28;20047;-78
2022/05/17 02:21:04;;;;;;;10.27;2.63;;;;;;;12.26;100.00;102086.75;5074086;28;20111;-78
2022/05/17 02:23:30;;;;;;;8.98;2.42;;;;;;;12.30;99.95;102091.72;5073704;28;20413;-78
2022/05/17 02:25:55;;;;;;;8.05;2.15;;;;;;;12.36;99.38;102095.72;5055260;28;20453;-78
2022/05/17 02:28:23;;;;;;;10.43;2.10;;;;;;;12.39;99.21;102091.94;5055180;28;20098;-79
2022/05/17 02:30:49;;;;;;;10.80;2.63;;;;;;;12.38;99.00;102096.44;5073936;28;20041;-79
2022/05/17 02:33:15;;;;;;;4.30;2.17;;;;;;;12.37;98.89;102096.56;5073877;28;20032;-79
2022/05/17 02:35:42;;;;;;;4.13;2.00;;;;;;;12.36;98.73;102095.72;5073919;28;20033;-78
2022/05/17 02:38:09;;;;;;;8.43;2.20;;;;;;;12.41;99.07;102096.22;5073536;28;20036;-79
2022/05/17 02:40:35;;;;;;;5.47;2.50;;;;;;;12.43;99.39;102088.91;5073286;28;20036;-78
2022/05/17 02:43:01;;;;;;;7.35;2.60;;;;;;;12.42;98.93;102099.72;5073110;28;20460;-78
2022/05/17 02:45:26;;;;;;;8.38;2.92;;;;;;;12.39;99.33;102098.16;5073262;28;20032;-78
2022/05/17 02:47:52;;;;;;;5.00;2.13;;;;;;;12.38;99.72;102100.94;5073631;28;20101;-79
2022/05/17 02:50:18;;;;;;;10.30;2.78;;;;;;;12.39;99.62;102098.16;5073212;28;20044;-79
2022/05/17 02:52:44;;;;;;;5.75;2.50;;;;;;;12.42;99.97;102097.91;5073283;28;20024;-78
2022/05/17 02:55:10;;;;;;;12.00;2.80;;;;;;;12.45;100.00;102100.34;5073273;28;20441;-79
2022/05/17 02:57:35;;;;;;;5.13;2.33;;;;;;;12.57;99.77;102103.00;5072798;28;20085;-78
2022/05/17 03:00:01;;;;;;;7.00;2.25;;;;;;;12.60;99.52;102110.75;5072962;28;20147;-79
2022/05/17 03:02:27;;;;;;;7.00;2.10;;;;;;;12.67;98.99;102103.97;5073035;28;20357;-79
2022/05/17 03:04:52;;;;;;;9.18;2.22;;;;;;;12.77;99.15;102101.44;5072573;28;20035;-79
2022/05/17 03:07:18;;;;;;;8.00;2.10;;;;;;;12.90;98.76;102101.28;5073269;28;20040;-79
2022/05/17 03:09:43;;;;;;;5.38;2.00;;;;;;;13.08;98.55;102101.59;5072869;28;20119;-79
2022/05/17 03:12:09;;;;;;;5.22;2.05;;;;;;;13.21;98.10;102099.63;5072327;28;20333;-79
2022/05/17 03:14:35;;;;;;;8.35;2.05;;;;;;;13.37;98.03;102091.25;5072716;28;20113;-78
2022/05/17 03:17:00;;;;;;;8.85;2.08;;;;;;;13.46;96.39;102095.81;5072229;28;20032;-78
2022/05/17 03:19:26;;;;;;;5.97;2.40;;;;;;;13.48;94.46;102088.53;5072796;28;20146;-79
2022/05/17 03:21:51;;;;;;;6.75;2.03;;;;;;;13.51;93.81;102090.97;5073006;28;20436;-79
2022/05/17 03:24:16;;;;;;;5.40;2.17;;;;;;;13.51;93.43;102098.09;5074096;28;20041;-78
2022/05/17 03:26:42;;;;;;;3.60;1.92;;;;;;;13.50;92.80;102104.47;5073278;28;20083;-78
2022/05/17 03:29:07;;;;;;;8.75;2.10;;;;;;;13.52;92.82;102110.50;5072303;28;20036;-78
2022/05/17 03:31:36;;;;;;;7.45;1.90;;;;;;;13.55;92.47;102112.94;5071671;28;20036;-79
2022/05/17 03:34:02;;;;;;;5.28;1.80;;;;;;;13.56;91.93;102118.16;5072308;28;20422;-78
2022/05/17 03:36:27;;;;;;;4.65;1.70;;;;;;;13.56;92.09;102111.97;5072246;28;20409;-79
2022/05/17 03:38:53;;;;;;;4.20;1.83;;;;;;;13.60;92.40;102115.22;5054370;28;20114;-79
2022/05/17 03:41:18;;;;;;;8.45;2.08;;;;;;;13.63;92.11;102114.97;5073522;28;20036;-79
2022/05/17 03:43:44;;;;;;;5.72;2.50;;;;;;;13.63;91.98;102134.53;5072718;28;20100;-79
2022/05/17 03:46:10;;;;;;;7.43;2.20;;;;;;;13.66;91.95;102136.97;5072178;28;20105;-79
2022/05/17 03:48:35;;;;;;;7.80;2.10;;;;;;;13.71;91.95;102136.56;5073040;28;20118;-78
2022/05/17 03:51:01;;;;;;;8.13;2.40;;;;;;;13.74;91.64;102137.16;5059451;28;20186;-79
2022/05/17 03:53:26;;;;;;;6.60;2.13;;;;;;;13.79;91.51;102143.97;5083691;28;20106;-78
2022/05/17 03:55:52;;;;;;;11.13;2.10;;;;;;;13.79;91.10;102134.09;5076515;28;20111;-78
2022/05/17 03:58:18;;;;;;;6.10;2.03;;;;;;;13.82;91.30;102141.03;5073594;28;20079;-78
2022/05/17 04:00:43;;;;;;;8.00;2.20;;;;;;;13.86;91.03;102155.84;5073625;28;20032;-77
2022/05/17 04:03:09;;;;;;;7.65;1.95;;;;;;;13.90;90.89;102143.91;5072640;28;20043;-79
2022/05/17 04:05:35;;;;;;;5.45;1.92;;;;;;;13.93;90.40;102141.81;5073351;28;20020;-79
2022/05/17 04:08:00;;;;;;;6.05;1.80;;;;;;;13.97;89.88;102145.06;5076274;28;20033;-79
2022/05/17 04:10:26;;;;;;;5.43;1.83;;;;;;;14.03;89.33;102143.72;5072597;28;20040;-79
2022/05/17 04:12:51;;;;;;;9.25;2.30;;;;;;;14.06;88.58;102152.34;5071921;28;20131;-78
2022/05/17 04:15:22;;;;;;;9.23;2.35;;;;;;;14.07;88.18;102154.03;5072255;28;20036;-78
2022/05/17 04:17:50;;;;;;;7.75;1.95;;;;;;;14.08;88.37;102153.06;5071665;28;20032;-77
2022/05/17 04:20:16;;;;;;;6.63;2.00;;;;;;;14.08;88.30;102149.53;5072614;28;20069;-78
2022/05/17 04:22:47;;;;;;;7.22;2.50;;;;;;;14.10;88.49;102159.13;5072298;28;20056;-78
2022/05/17 04:25:15;;;;;;;6.38;2.08;;;;;;;14.09;88.19;102161.91;5071617;28;20454;-79
2022/05/17 04:27:40;;;;;;;7.65;2.08;;;;;;;14.16;87.94;102154.25;5071421;28;20029;-79
2022/05/17 04:30:06;;;;;;;7.05;1.85;;;;;;;14.24;86.86;102163.31;5071760;28;20025;-79
2022/05/17 04:32:31;;;;;;;6.68;1.95;;;;;;;14.32;85.75;102165.31;5072149;28;20115;-79
2022/05/17 04:34:58;;;;;;;7.38;2.13;;;;;;;14.37;85.25;102160.41;5071926;28;20067;-78
2022/05/17 04:37:23;;;;;;;6.93;2.00;;;;;;;14.40;84.74;102162.00;5071107;28;20051;-78
2022/05/17 04:39:49;;;;;;;9.98;2.72;;;;;;;14.42;84.69;102158.22;5071640;28;20029;-79
2022/05/17 04:42:14;;;;;;;6.90;1.95;;;;;;;14.48;84.40;102166.69;5070751;28;20036;-79
2022/05/17 04:44:39;;;;;;;10.50;2.55;;;;;;;14.53;84.15;102159.94;5070952;28;20032;-80
2022/05/17 04:47:07;;;;;;;8.32;2.85;;;;;;;14.59;83.68;102156.72;5071809;28;20063;-79
2022/05/17 04:49:32;;;;;;;7.05;2.03;;;;;;;14.63;83.78;102160.03;5070675;28;20095;-79
2022/05/17 04:51:57;;;;;;;11.48;2.30;;;;;;;14.65;83.39;102168.78;5053719;28;20036;-79
2022/05/17 04:54:23;;;;;;;4.78;1.95;;;;;;;14.68;82.18;102173.03;5071020;28;20419;-78
2022/05/17 04:56:48;;;;;;;9.82;2.58;;;;;;;14.69;82.14;102178.25;5070689;28;20369;-78
2022/05/17 04:59:14;;;;;;;8.80;2.33;;;;;;;14.71;81.87;102181.63;5052569;28;20059;-79
2022/05/17 05:01:39;;;;;;;9.75;2.28;;;;;;;14.70;81.61;102189.81;5071074;28;20040;-80
2022/05/17 05:04:05;;;;;;;9.18;2.58;;;;;;;14.65;81.19;102179.50;5070734;28;20033;-77
2022/05/17 05:06:30;;;;;;;7.97;2.13;;;;;;;14.61;80.05;102183.41;5036374;28;20032;-78
2022/05/17 05:08:56;;;;;;;11.25;2.20;;;;;;;14.59;78.22;102193.41;5052981;28;20051;-77
2022/05/17 05:11:21;;;;;;;7.38;2.50;;;;;;;14.61;78.35;102189.63;5071192;28;20037;-77
2022/05/17 05:13:46;;;;;;;7.90;2.05;;;;;;;14.61;78.04;102188.78;5071880;28;20056;-79
2022/05/17 05:16:14;;;;;;;8.15;2.42;;;;;;;14.61;77.17;102189.63;5075435;28;20205;-77
2022/05/17 05:18:40;;;;;;;6.50;2.15;;;;;;;14.63;76.31;102192.19;5064690;28;20029;-77
2022/05/17 05:21:12;;;;;;;8.65;2.22;;;;;;;14.63;76.40;102182.31;5053366;28;20475;-77
2022/05/17 05:23:38;;;;;;;9.38;2.60;;;;;;;14.66;76.32;102185.69;5070195;28;20032;-75
2022/05/17 05:26:05;;;;;;;8.52;1.95;;;;;;;14.67;76.06;102190.91;5069926;28;20354;-77
2022/05/17 05:28:31;;;;;;;7.82;2.15;;;;;;;14.70;76.03;102195.16;5070439;28;20356;-78
2022/05/17 05:30:57;;;;;;;8.20;1.80;;;;;;;14.71;76.88;102199.56;5070290;28;20055;-77
2022/05/17 05:33:23;;;;;;;11.32;2.22;;;;;;;14.68;77.89;102191.78;5070116;28;20037;-77
2022/05/17 05:35:50;;;;;;;8.05;1.98;;;;;;;14.63;78.24;102195.72;5070613;28;20055;-79
2022/05/17 05:38:16;;;;;;;8.10;1.98;;;;;;;14.61;79.18;102197.69;5052621;28;20453;-80
2022/05/17 05:40:41;;;;;;;6.40;1.70;;;;;;;14.59;79.28;102202.28;5051797;28;20046;-80
2022/05/17 05:43:07;;;;;;;9.98;2.13;;;;;;;14.51;81.21;102202.09;5052650;28;20051;-77
2022/05/17 05:45:33;;;;;;;9.90;2.20;;;;;;;14.37;81.67;102195.22;5052163;28;20043;-81
2022/05/17 05:47:59;;;;;;;12.27;2.15;;;;;;;14.23;83.02;102193.72;5069743;28;20044;-79
2022/05/17 05:50:24;;;;;;;10.23;2.55;;;;;;;14.11;85.63;102192.09;5070254;28;20101;-80
2022/05/17 05:52:50;;;;;;;5.97;2.00;;;;;;;13.99;86.74;102187.75;5070025;28;20035;-79
2022/05/17 05:55:21;;;;;;;11.25;2.80;;;;;;;13.93;89.00;102183.78;5074356;28;20028;-79
2022/05/17 05:57:48;;;;;;;8.88;2.33;;;;;;;13.86;90.50;102179.94;5056514;28;20341;-77
2022/05/17 06:00:15;;;;;;;12.52;3.00;;;;;;;13.83;90.39;102180.19;5073722;28;20032;-73
2022/05/17 06:02:40;;;;;;;14.05;2.42;;;;;;;13.81;90.96;102187.47;5073686;28;20376;-77
2022/05/17 06:05:06;;;;;;;13.00;3.17;;;;;;;13.80;91.51;102185.78;5073438;28;20024;-76
2022/05/17 06:07:32;;;;;;;8.95;2.42;;;;;;;13.84;92.34;102181.84;5073616;28;20379;-76
2022/05/17 06:09:57;;;;;;;13.13;2.63;;;;;;;13.87;93.22;102177.13;5073302;28;20428;-82
2022/05/17 06:12:23;;;;;;;10.95;2.58;;;;;;;13.91;93.29;102183.91;5073507;28;20403;-78
2022/05/17 06:14:48;;;;;;;12.93;2.83;;;;;;;13.91;93.76;102183.91;5055150;28;20123;-78
2022/05/17 06:17:13;;;;;;;36.67;7.80;;;;;;;13.93;93.24;102187.31;5073515;28;20029;-76
2022/05/17 06:19:39;;;;;;;62.55;10.98;;;;;;;13.96;93.11;102198.72;5073219;28;20096;-76
2022/05/17 06:22:04;;;;;;;15.07;3.28;;;;;;;13.97;93.84;102198.59;5073273;28;20068;-78
2022/05/17 06:24:29;;;;;;;10.57;3.35;;;;;;;13.99;94.58;102206.47;5073439;28;20078;-76
2022/05/17 06:26:55;;;;;;;10.50;2.70;;;;;;;14.00;95.14;102202.84;5073736;28;20067;-77
2022/05/17 06:29:21;;;;;;;12.43;2.65;;;;;;;14.05;96.34;102196.13;5038384;28;20093;-77
2022/05/17 06:31:46;;;;;;;10.10;2.80;;;;;;;14.13;96.42;102194.66;5073016;28;20127;-77
2022/05/17 06:34:11;;;;;;;10.70;2.70;;;;;;;14.23;95.90;102198.25;5072658;28;20028;-76
2022/05/17 06:36:38;;;;;;;4.63;2.45;;;;;;;14.27;96.09;102197.84;5073287;28;20052;-77
2022/05/17 06:39:08;;;;;;;13.40;2.90;;;;;;;14.33;97.10;102200.97;5073099;28;20391;-78
2022/05/17 06:41:33;;;;;;;10.98;3.28;;;;;;;14.37;96.40;102186.34;5055877;28;20036;-79
2022/05/17 06:43:59;;;;;;;7.57;2.58;;;;;;;14.39;97.23;102190.59;5073078;28;20051;-81
2022/05/17 06:46:25;;;;;;;11.73;3.65;;;;;;;14.39;97.89;102190.59;5054816;28;20033;-78
2022/05/17 06:48:50;;;;;;;9.05;2.88;;;;;;;14.38;97.46;102190.75;5073073;28;20317;-78
2022/05/17 06:51:15;;;;;;;12.15;3.60;;;;;;;14.36;97.10;102174.81;5055020;28;20139;-77
2022/05/17 06:53:41;;;;;;;17.92;3.45;;;;;;;14.28;98.10;102171.91;5072285;28;20024;-77
2022/05/17 06:56:06;;;;;;;8.23;2.80;;;;;;;14.17;98.77;102177.34;5072453;28;20044;-77
2022/05/17 06:58:32;;;;;;;9.13;3.40;;;;;;;14.06;100.00;102176.44;5072672;28;20029;-79
2022/05/17 07:00:58;;;;;;;11.65;3.35;;;;;;;14.01;100.00;102181.31;5072742;28;20025;-78
2022/05/17 07:03:23;;;;;;;8.18;3.63;;;;;;;14.04;100.00;102183.72;5072345;28;20072;-79
2022/05/17 07:05:49;;;;;;;7.00;3.60;;;;;;;14.15;100.00;102188.16;5072345;28;20090;-78
2022/05/17 07:08:14;;;;;;;9.95;3.25;;;;;;;14.33;100.00;102184.91;5053897;28;20029;-78
2022/05/17 07:13:24;;;;;;;9.38;3.88;;;;;;;14.69;100.00;102191.66;5072305;28;20044;-78
2022/05/17 07:15:50;;;;;;;7.18;3.42;;;;;;;14.87;100.00;102189.19;5072273;28;20028;-77
2022/05/17 07:18:18;;;;;;;6.35;3.40;;;;;;;15.07;100.00;102195.47;5071781;28;20029;-77
2022/05/17 07:20:44;;;;;;;8.85;3.80;;;;;;;15.27;100.00;102190.16;5053666;28;20439;-78
2022/05/17 07:23:10;;;;;;;10.45;3.47;;;;;;;15.44;100.00;102191.34;5037231;28;20028;-74
2022/05/17 07:25:37;;;;;;;10.18;3.38;;;;;;;15.57;100.00;102196.44;5071281;28;20048;-74
2022/05/17 07:28:03;;;;;;;7.72;3.38;;;;;;;15.73;100.00;102199.41;5072270;28;20414;-74
2022/05/17 07:30:29;;;;;;;11.25;3.50;;;;;;;15.83;100.00;102202.16;5072346;28;20048;-75
2022/05/17 07:32:54;;;;;;;5.05;2.85;;;;;;;15.87;99.12;102203.56;5072070;28;20094;-74
2022/05/17 07:35:20;;;;;;;5.47;2.50;;;;;;;15.85;97.95;102211.78;5071782;28;20040;-75
2022/05/17 07:37:45;;;;;;;6.95;3.00;;;;;;;15.82;98.55;102212.06;5072422;28;20103;-75
2022/05/17 07:40:12;;;;;;;6.07;2.88;;;;;;;15.85;98.87;102210.91;5053824;28;20161;-75
2022/05/17 07:42:48;;;;;;;6.60;2.55;;;;;;;15.86;97.44;102220.66;5072336;28;20059;-75
2022/05/17 07:45:15;;;;;;;9.00;2.72;;;;;;;15.97;98.56;102204.44;5071482;28;20055;-75
2022/05/17 07:47:41;;;;;;;7.28;2.67;;;;;;;16.19;99.79;102211.31;5053547;28;20052;-75
2022/05/17 07:50:07;;;;;;;5.57;2.70;;;;;;;16.45;99.49;102207.19;5071562;28;20078;-79
2022/05/17 07:52:33;;;;;;;7.63;2.80;;;;;;;16.65;97.79;102210.69;5071637;28;20040;-76
2022/05/17 07:54:59;;;;;;;6.03;2.90;;;;;;;16.85;95.54;102223.03;5071700;28;20468;-75
2022/05/17 07:57:25;;;;;;;3.97;2.20;;;;;;;17.08;91.87;102222.72;5071472;28;20033;-75
2022/05/17 07:59:51;;;;;;;7.03;2.50;;;;;;;17.35;90.15;102212.97;5071210;28;20033;-77
2022/05/17 08:02:17;;;;;;;6.82;2.15;;;;;;;17.68;89.97;102222.25;5071360;28;20129;-75
2022/05/17 08:04:43;;;;;;;5.55;2.28;;;;;;;17.95;87.96;102221.34;5071419;28;20166;-77
2022/05/17 08:07:08;;;;;;;3.78;2.33;;;;;;;18.21;88.06;102223.25;5070875;28;20130;-81
2022/05/17 08:09:35;;;;;;;6.20;2.88;;;;;;;18.41;85.17;102225.78;5070571;28;20105;-77
2022/05/17 08:12:01;;;;;;;6.35;2.72;;;;;;;18.64;86.89;102223.41;5071132;28;20125;-77
2022/05/17 08:14:26;;;;;;;5.20;2.70;;;;;;;18.85;85.82;102220.31;5071295;28;20112;-77
2022/05/17 08:16:52;;;;;;;6.85;2.65;;;;;;;18.96;83.28;102221.91;5070171;28;20090;-77
2022/05/17 08:19:17;;;;;;;5.82;2.75;;;;;;;19.12;83.92;102218.44;5070760;28;20155;-78
2022/05/17 08:21:43;;;;;;;6.45;3.08;;;;;;;19.26;82.17;102216.97;5071128;28;20081;-77
2022/05/17 08:24:08;;;;;;;5.47;2.65;;;;;;;19.35;82.84;102218.72;5071766;28;20041;-78
2022/05/17 08:29:21;;;;;;;7.13;2.83;;;;;;;19.85;80.54;102214.28;5070686;28;20168;-79
2022/05/17 08:33:14;;;;;;;5.70;2.92;;;;;;;20.15;80.68;102218.19;5070557;28;20100;-80
2022/05/17 08:34:33;;;;;;;8.32;2.80;;;;;;;20.41;76.48;102200.94;5070851;28;20036;-79
2022/05/17 08:36:59;;;;;;;5.78;2.88;;;;;;;20.42;76.42;102208.88;5070440;28;20398;-78
2022/05/17 08:39:28;;;;;;;6.35;2.88;;;;;;;20.40;76.46;102210.91;5070619;28;20032;-78
2022/05/17 08:41:59;;;;;;;7.18;2.80;;;;;;;20.42;76.64;102211.59;5070897;28;20472;-79
2022/05/17 08:44:44;;;;;;;9.85;3.03;;;;;;;20.41;75.57;102209.88;5070142;28;20479;-76
2022/05/17 08:47:20;;;;;;;5.72;2.38;;;;;;;20.52;75.93;102216.78;5070477;28;20328;-78
2022/05/17 08:49:55;;;;;;;6.32;2.55;;;;;;;20.63;76.11;102212.91;5071280;28;20119;-79
2022/05/17 08:52:24;;;;;;;7.15;2.30;;;;;;;20.74;73.74;102211.72;5071219;28;20024;-77
2022/05/17 08:55:00;;;;;;;5.90;2.45;;;;;;;20.92;73.36;102217.75;5070811;28;20020;-78
2022/05/17 08:57:39;;;;;;;5.90;2.63;;;;;;;21.19;71.27;102210.19;5070748;28;20064;-79
2022/05/17 09:00:22;;;;;;;3.85;2.20;;;;;;;21.23;72.01;102216.09;5070966;28;20459;-78
2022/05/17 09:02:50;;;;;;;3.63;2.30;;;;;;;21.19;72.62;102203.94;5070613;28;20108;-78
2022/05/17 09:05:18;;;;;;;4.57;2.20;;;;;;;21.38;72.55;102205.34;5070276;28;20028;-79
2022/05/17 09:07:52;;;;;;;3.35;2.03;;;;;;;21.65;71.50;102198.63;5052612;28;20048;-78
2022/05/17 09:10:32;;;;;;;5.35;1.95;;;;;;;22.51;65.95;102204.72;5070945;28;20036;-79
2022/05/17 09:13:05;;;;;;;5.63;2.17;;;;;;;23.87;63.71;102200.75;5070517;28;20499;-79
2022/05/17 09:15:31;;;;;;;4.40;1.90;;;;;;;25.51;55.19;102191.28;5070985;28;20033;-77
2022/05/17 09:18:03;;;;;;;4.22;2.00;;;;;;;26.23;53.66;102191.59;5070736;28;20046;-78
2022/05/17 09:20:33;;;;;;;6.47;1.90;;;;;;;27.28;51.20;102194.22;5070833;28;20112;-78
2022/05/17 09:22:58;;;;;;;4.80;2.03;;;;;;;28.32;48.46;102190.38;5070637;28;20107;-78
2022/05/17 09:25:58;;;;;;;3.40;1.80;;;;;;;29.49;45.36;102197.63;5070092;28;20171;-78
2022/05/17 09:28:42;;;;;;;4.55;1.88;;;;;;;29.39;41.39;102191.84;5071688;28;20028;-78
2022/05/17 09:31:17;;;;;;;8.05;2.47;;;;;;;28.09;48.30;102193.72;5074856;28;20021;-78
2022/05/17 09:33:43;;;;;;;9.05;2.25;;;;;;;28.01;45.53;102194.84;5056306;28;20035;-78
2022/05/17 09:36:23;;;;;;;7.32;2.15;;;;;;;27.61;45.93;102197.84;5074696;28;20036;-77
2022/05/17 09:38:51;;;;;;;3.97;2.03;;;;;;;27.52;47.88;102197.28;5074733;28;20032;-77
2022/05/17 09:41:31;;;;;;;6.45;2.13;;;;;;;27.47;47.60;102196.25;5074310;28;20096;-78
2022/05/17 09:44:04;;;;;;;3.43;2.00;;;;;;;27.30;46.17;102191.28;5074390;28;20029;-77
2022/05/17 09:46:31;;;;;;;7.07;2.20;;;;;;;26.85;45.69;102188.53;5074243;28;20392;-78
2022/05/17 09:55:12;;;;;;;9.93;2.10;;;;;;;25.91;46.49;102191.34;5042614;28;20055;-78
2022/05/17 09:57:49;;;;;;;4.75;2.08;;;;;;;25.15;51.96;102195.13;5074633;28;20029;-77
2022/05/17 10:00:22;;;;;;;8.48;2.10;;;;;;;24.67;51.63;102198.69;5074619;28;20032;-78
2022/05/17 10:02:51;;;;;;;6.30;2.10;;;;;;;24.32;54.63;102195.06;5074128;28;20071;-78
2022/05/17 10:05:21;;;;;;;7.18;2.10;;;;;;;24.20;52.94;102189.31;5074069;28;20078;-78
2022/05/17 10:07:57;;;;;;;;;;;;;;;24.20;52.46;102192.91;5074657;28;20119;-78
2022/05/17 10:10:36;;;;;;;5.85;1.92;;;;;;;25.68;50.92;102178.97;5055973;28;19959;-78
2022/05/17 10:13:25;;;;;;;7.40;2.35;;;;;;;27.26;45.95;102174.50;5055808;28;20434;-76
2022/05/17 10:15:55;;;;;;;5.80;2.10;;;;;;;28.71;45.16;102174.59;5073301;28;20131;-78
2022/05/17 10:18:30;;;;;;;5.22;1.90;;;;;;;29.89;38.49;102169.59;5074521;28;20060;-82
2022/05/17 10:21:05;;;;;;;9.23;2.03;;;;;;;29.37;37.96;102164.69;5055315;28;20488;-80
2022/05/17 10:23:51;;;;;;;7.20;2.35;;;;;;;28.50;42.74;102163.00;5074239;28;20070;-79
2022/05/17 10:26:22;;;;;;;4.25;2.20;;;;;;;28.20;44.33;102162.91;5073260;28;20102;-79
2022/05/17 10:29:02;;;;;;;4.90;2.33;;;;;;;27.99;41.57;102155.09;5073774;28;20040;-78
2022/05/17 10:31:49;;;;;;;7.45;2.40;;;;;;;28.42;41.76;102152.34;5073684;28;20048;-78
2022/05/17 10:34:39;;;;;;;5.80;2.40;;;;;;;28.60;41.90;102146.06;5073884;28;20449;-78
2022/05/17 10:37:18;;;;;;;6.63;2.27;;;;;;;28.55;41.76;102148.63;5074055;28;20031;-78
2022/05/17 10:40:09;;;;;;;7.97;2.45;;;;;;;27.15;44.23;102155.22;5073470;28;20031;-79
2022/05/17 10:42:37;;;;;;;;;;;;;;;26.07;46.86;102146.50;5074160;28;20029;-76
2022/05/17 10:45:05;;;;;;;7.15;2.35;;;;;;;25.38;48.75;102145.81;5073251;28;19919;-79
2022/05/17 10:47:46;;;;;;;5.45;2.10;;;;;;;25.32;47.50;102139.28;5073706;28;20056;-73
2022/05/17 10:50:28;;;;;;;4.72;1.90;;;;;;;26.51;48.83;102142.22;5073991;28;20039;-78
2022/05/17 10:53:18;;;;;;;5.05;2.30;;;;;;;27.74;42.91;102142.25;5055853;28;20032;-75
2022/05/17 10:55:43;;;;;;;5.00;2.10;;;;;;;28.55;41.28;102134.13;5055058;28;20055;-78
2022/05/17 10:58:22;;;;;;;5.53;2.03;;;;;;;28.90;41.27;102130.75;5073586;28;20028;-78
2022/05/17 11:00:58;;;;;;;5.65;2.30;;;;;;;28.42;38.66;102135.91;5073822;28;20380;-77
2022/05/17 11:03:44;;;;;;;4.63;2.20;;;;;;;29.15;39.08;102136.09;5072959;28;20186;-77
2022/05/17 11:06:12;;;;;;;5.90;2.55;;;;;;;29.96;37.93;102131.06;5073544;28;20036;-79
2022/05/17 11:09:13;;;;;;;5.30;2.42;;;;;;;30.46;35.09;102127.00;5073676;28;20047;-80
2022/05/17 11:11:52;;;;;;;5.85;2.47;;;;;;;30.11;34.56;102130.56;5073554;28;20457;-79
2022/05/17 11:14:32;;;;;;;6.60;2.28;;;;;;;29.33;37.65;102118.78;5073663;28;20070;-79
2022/05/17 11:17:06;;;;;;;11.27;3.05;;;;;;;29.87;38.10;102111.41;5073655;28;20039;-79
2022/05/17 11:19:43;;;;;;;6.20;2.92;;;;;;;30.03;37.81;102109.81;5074304;28;20036;-77
2022/05/17 11:22:30;;;;;;;6.65;3.00;;;;;;;30.68;36.46;102113.44;5073947;28;20043;-80
2022/05/17 11:25:02;;;;;;;9.27;3.40;;;;;;;30.71;35.49;102101.97;5054859;28;20092;-79
2022/05/17 11:27:55;;;;;;;5.88;3.03;;;;;;;29.65;36.16;102091.06;5072969;28;20119;-80
2022/05/17 11:30:21;;;;;;;5.45;3.08;;;;;;;28.45;39.63;102108.09;5073169;28;20064;-80
2022/05/17 11:33:30;;;;;;;9.10;3.58;;;;;;;27.09;42.45;102100.41;5073092;28;20024;-79
2022/05/17 11:35:59;;;;;;;7.55;3.40;;;;;;;26.07;45.17;102091.97;5072305;28;20124;-79
2022/05/17 11:38:37;;;;;;;6.88;3.60;;;;;;;25.39;48.10;102100.31;5072682;28;20028;-78
2022/05/17 11:41:07;;;;;;;9.13;4.50;;;;;;;24.85;46.67;102102.06;5072401;28;20048;-78
2022/05/17 11:44:10;;;;;;;11.13;3.95;;;;;;;24.78;49.41;102096.56;5054062;28;20043;-78
2022/05/17 11:46:43;;;;;;;9.00;4.45;;;;;;;24.99;48.98;102095.59;5053887;28;20032;-77